Arvada, CO (80006)

4:48 AM MDT on October 24, 2014 (GMT -0600)
AFPD Station 5 | Change Station
CLOSE
Current Station
Personal Weather Station
Location: Arvada, CO
Elevation: 5440 ft
Nearby Weather Stations

Elev 5440 ft 39.84 °N, 105.08 °W | Updated 5 minutes ago

Clear
Clear
59.2 °F
Feels Like 59.2 °F
N
5.0
Wind Variable Wind from West
Gusts 6.0 mph

Today
High -- | Low -- °F
--% Chance of Precip.
Yesterday
High -- | Low -- °F
Precip. -- in
7:20 AM 6:08 PM
New Moon, 0% visible
Pressure 30.15 in
Visibility 10.0 miles
Clouds Clear
Dew Point 26 °F
Humidity 28%
Rainfall 0.00 in
Snow Depth Not available.
UV 0.0 out of 12
Pollen 2.50 out of 12
Air Quality Not available.
Flu Activity Sporadic
METAR KBJC 241035Z AUTO 22003KT 10SM CLR 17/M05 A3015 RMK AO2

More Conditions Fewer Conditions

Pressure 30.15 in
Visibility 10.0 miles
Clouds Clear
Dew Point 26 °F
Humidity 28%
Rainfall 0.00 in
Snow Depth Not available.
UV 0.0 out of 12
Pollen 2.50 out of 12
Air Quality Not available.
Flu Activity Sporadic
METAR KBJC 241035Z AUTO 22003KT 10SM CLR 17/M05 A3015 RMK AO2

More Conditions Fewer Conditions

Nowcast | as of 4:47 am MDT on October 24, 2014

Gusty west winds of 10 to 20 mph with gusts up to 30 mph can be expected over the Front Range foothills and adjacent plains through the early morning hours.

×

10-Day Weather Forecast

Almanac

Astronomy

Oct. 24, 2014 Rise Set
Actual Time 7:20 AM MDT 6:08 PM MDT
Civil Twilight 6:52 AM MDT 6:35 PM MDT
Nautical Twilight 6:21 AM MDT 7:07 PM MDT
Astronomical Twilight 5:49 AM MDT 7:38 PM MDT
Moon 8:01 AM MDT 6:50 PM MDT
Length of Visible Light 11h 42m
Length of Day
10h 47m
Tomorrow will be 2m 26s shorter.
New Moon, 0% of the Moon is Illuminated
Today
New Moon
Oct 30
First Quarter
Nov 6
Full
Nov 14
Last Quarter
Nov 22
New

Today's Extremes

State Highs State Lows

Community

WunderPhotos

Upload Photos

1,764,516 photos uploaded!

WunderBlogs® & News

Nearby

Air Quality

  Air Quality AQ Index Pollutant
Yesterday Good
OZONE
Yesterday Good
PM10
Friday Good
OZONE
Friday Good
PM2.5

Snow Depth

Station Depth Elevation
Lake Eldora 0 in 9700 ft
Niwot 0 in 9910 ft
University Camp 0 in 10300 ft
Echo Lake 0 in 10600 ft
Copeland Lake 0 in 8600 ft

Earthquake Activity

City Distance Mag. Time & Date
No recent earthquake activity has been reported nearby.
Minimum magnitude displayed is 2.5.

Coastal Water Temperatures

Place Temperature
No Stations Reporting

Nearby Weather Stations